sensor_id;sensor_type;location;lat;lon;timestamp;pressure;altitude;pressure_sealevel;temperature
49557;BMP280;35462;45.048;7.666;2023-01-09T00:12:20;97912.09;;;10.69
49557;BMP280;35462;45.048;7.666;2023-01-09T00:27:37;97914.59;;;10.60
49557;BMP280;35462;45.048;7.666;2023-01-09T00:42:55;97891.41;;;10.52
49557;BMP280;35462;45.048;7.666;2023-01-09T00:58:11;97924.91;;;10.42
49557;BMP280;35462;45.048;7.666;2023-01-09T01:13:27;97877.28;;;10.30
49557;BMP280;35462;45.048;7.666;2023-01-09T01:28:43;97855.31;;;10.17
49557;BMP280;35462;45.048;7.666;2023-01-09T01:44:01;97833.78;;;10.02
49557;BMP280;35462;45.048;7.666;2023-01-09T02:47:01;97754.91;;;10.13
49557;BMP280;35462;45.048;7.666;2023-01-09T03:17:48;97752.22;;;10.01
49557;BMP280;35462;45.048;7.666;2023-01-09T03:33:05;97773.03;;;10.15
49557;BMP280;35462;45.048;7.666;2023-01-09T03:48:21;97814.41;;;10.21
49557;BMP280;35462;45.048;7.666;2023-01-09T04:03:37;97746.31;;;10.09
49557;BMP280;35462;45.048;7.666;2023-01-09T04:19:02;97739.97;;;10.07
49557;BMP280;35462;45.048;7.666;2023-01-09T04:34:20;97708.41;;;9.87
49557;BMP280;35462;45.048;7.666;2023-01-09T04:49:39;97681.19;;;9.74
49557;BMP280;35462;45.048;7.666;2023-01-09T05:04:57;97693.81;;;9.83
49557;BMP280;35462;45.048;7.666;2023-01-09T05:20:17;97702.75;;;9.73
49557;BMP280;35462;45.048;7.666;2023-01-09T05:35:41;97719.41;;;9.58
49557;BMP280;35462;45.048;7.666;2023-01-09T06:07:51;97782.06;;;9.57
49557;BMP280;35462;45.048;7.666;2023-01-09T06:23:20;97815.75;;;9.53
49557;BMP280;35462;45.048;7.666;2023-01-09T06:38:36;97796.44;;;9.56
49557;BMP280;35462;45.048;7.666;2023-01-09T06:53:52;97817.56;;;9.24
49557;BMP280;35462;45.048;7.666;2023-01-09T07:09:08;97820.47;;;9.62
49557;BMP280;35462;45.048;7.666;2023-01-09T07:24:27;97829.03;;;9.50
49557;BMP280;35462;45.048;7.666;2023-01-09T07:39:43;97846.72;;;9.37
49557;BMP280;35462;45.048;7.666;2023-01-09T07:54:59;97863.00;;;9.35
49557;BMP280;35462;45.048;7.666;2023-01-09T08:10:15;97841.69;;;9.26
49557;BMP280;35462;45.048;7.666;2023-01-09T08:25:34;97850.44;;;9.39
49557;BMP280;35462;45.048;7.666;2023-01-09T08:40:50;97849.78;;;9.35
49557;BMP280;35462;45.048;7.666;2023-01-09T08:56:06;97832.78;;;9.36
49557;BMP280;35462;45.048;7.666;2023-01-09T09:11:21;97803.03;;;9.64
49557;BMP280;35462;45.048;7.666;2023-01-09T09:26:37;97783.50;;;9.90
49557;BMP280;35462;45.048;7.666;2023-01-09T09:57:42;97775.81;;;10.49
49557;BMP280;35462;45.048;7.666;2023-01-09T10:12:59;97769.88;;;10.57
49557;BMP280;35462;45.048;7.666;2023-01-09T10:28:49;97753.69;;;10.43
49557;BMP280;35462;45.048;7.666;2023-01-09T10:44:18;97743.28;;;10.36
49557;BMP280;35462;45.048;7.666;2023-01-09T10:59:35;97714.31;;;10.45
49557;BMP280;35462;45.048;7.666;2023-01-09T11:14:51;97686.19;;;10.63
49557;BMP280;35462;45.048;7.666;2023-01-09T11:45:31;97659.44;;;10.95
49557;BMP280;35462;45.048;7.666;2023-01-09T12:00:53;97672.16;;;11.21
49557;BMP280;35462;45.048;7.666;2023-01-09T13:02:44;97612.63;;;12.17
49557;BMP280;35462;45.048;7.666;2023-01-09T13:18:10;97592.00;;;12.39
49557;BMP280;35462;45.048;7.666;2023-01-09T13:33:35;97587.78;;;12.50
49557;BMP280;35462;45.048;7.666;2023-01-09T13:48:58;97581.47;;;12.83
49557;BMP280;35462;45.048;7.666;2023-01-09T14:19:57;97586.38;;;13.53
49557;BMP280;35462;45.048;7.666;2023-01-09T14:51:15;97611.28;;;13.64
49557;BMP280;35462;45.048;7.666;2023-01-09T15:06:36;97637.59;;;13.62
49557;BMP280;35462;45.048;7.666;2023-01-09T15:22:00;97661.53;;;13.53
49557;BMP280;35462;45.048;7.666;2023-01-09T15:37:28;97653.72;;;13.41
49557;BMP280;35462;45.048;7.666;2023-01-09T15:52:45;97657.28;;;13.29
49557;BMP280;35462;45.048;7.666;2023-01-09T16:08:01;97713.56;;;13.19
49557;BMP280;35462;45.048;7.666;2023-01-09T16:38:48;97790.97;;;12.42
49557;BMP280;35462;45.048;7.666;2023-01-09T16:54:07;97829.00;;;11.75
49557;BMP280;35462;45.048;7.666;2023-01-09T17:09:23;97842.63;;;11.52
49557;BMP280;35462;45.048;7.666;2023-01-09T17:24:41;97870.19;;;11.55
49557;BMP280;35462;45.048;7.666;2023-01-09T17:40:16;97900.06;;;11.68
49557;BMP280;35462;45.048;7.666;2023-01-09T17:55:34;97895.47;;;11.80
49557;BMP280;35462;45.048;7.666;2023-01-09T18:10:51;97911.22;;;11.75
49557;BMP280;35462;45.048;7.666;2023-01-09T18:26:08;97944.81;;;11.78
49557;BMP280;35462;45.048;7.666;2023-01-09T18:41:25;97957.88;;;11.72
49557;BMP280;35462;45.048;7.666;2023-01-09T18:56:41;98003.38;;;11.71
49557;BMP280;35462;45.048;7.666;2023-01-09T19:11:57;98026.63;;;11.67
49557;BMP280;35462;45.048;7.666;2023-01-09T19:27:13;98060.75;;;11.65
49557;BMP280;35462;45.048;7.666;2023-01-09T19:42:29;98078.72;;;11.61
49557;BMP280;35462;45.048;7.666;2023-01-09T19:57:45;98094.81;;;11.67
49557;BMP280;35462;45.048;7.666;2023-01-09T20:13:01;98108.69;;;11.58
49557;BMP280;35462;45.048;7.666;2023-01-09T20:28:17;98098.41;;;11.60
49557;BMP280;35462;45.048;7.666;2023-01-09T20:43:32;98100.31;;;11.72
49557;BMP280;35462;45.048;7.666;2023-01-09T21:14:04;98130.09;;;11.64
49557;BMP280;35462;45.048;7.666;2023-01-09T21:29:21;98143.06;;;11.74
49557;BMP280;35462;45.048;7.666;2023-01-09T21:44:56;98176.22;;;11.82
49557;BMP280;35462;45.048;7.666;2023-01-09T22:00:27;98191.47;;;11.78
49557;BMP280;35462;45.048;7.666;2023-01-09T22:15:43;98195.19;;;11.80
49557;BMP280;35462;45.048;7.666;2023-01-09T22:31:07;98211.31;;;11.86
49557;BMP280;35462;45.048;7.666;2023-01-09T22:46:24;98253.91;;;11.95
49557;BMP280;35462;45.048;7.666;2023-01-09T23:01:40;98289.88;;;11.96
49557;BMP280;35462;45.048;7.666;2023-01-09T23:16:57;98302.00;;;11.97
49557;BMP280;35462;45.048;7.666;2023-01-09T23:32:14;98301.34;;;11.93
49557;BMP280;35462;45.048;7.666;2023-01-09T23:47:30;98323.88;;;11.85
